createdAt,value
2022-11-13T00:07:11.238Z,99.99
2022-11-13T00:17:11.557Z,99.99
2022-11-13T00:27:11.581Z,99.99
2022-11-13T00:37:11.950Z,99.99
2022-11-13T00:47:11.970Z,99.99
2022-11-13T00:57:12.288Z,99.99
2022-11-13T01:07:12.338Z,99.99
2022-11-13T01:17:12.451Z,99.99
2022-11-13T01:27:12.749Z,99.99
2022-11-13T01:37:12.813Z,99.99
2022-11-13T01:47:12.857Z,99.99
2022-11-13T01:57:13.195Z,99.99
2022-11-13T02:07:13.287Z,99.99
2022-11-13T02:17:13.351Z,99.99
2022-11-13T02:27:13.403Z,99.99
2022-11-13T02:37:14.659Z,99.99
2022-11-13T02:47:13.887Z,99.99
2022-11-13T02:57:14.106Z,99.99
2022-11-13T03:07:14.374Z,99.99
2022-11-13T03:17:16.812Z,99.99
2022-11-13T03:27:14.676Z,99.99
2022-11-13T03:37:14.935Z,99.99
2022-11-13T03:47:15.152Z,99.99
2022-11-13T03:57:15.402Z,99.99
2022-11-13T04:07:15.650Z,99.99
2022-11-13T04:17:15.981Z,99.99
2022-11-13T04:27:16.009Z,99.99
2022-11-13T04:37:16.257Z,99.99
2022-11-13T04:47:16.493Z,99.96
2022-11-13T04:57:16.828Z,99.99
2022-11-13T05:07:16.907Z,99.99
2022-11-13T05:17:16.993Z,99.99
2022-11-13T05:27:17.788Z,99.99
2022-11-13T05:37:17.170Z,99.99
2022-11-13T05:47:17.449Z,99.99
2022-11-13T05:57:17.681Z,99.99
2022-11-13T06:07:17.923Z,99.99
2022-11-13T06:17:18.026Z,99.99
2022-11-13T06:27:18.248Z,99.99
2022-11-13T06:37:18.470Z,99.99
2022-11-13T06:47:18.711Z,99.99
2022-11-13T06:57:19.259Z,99.99
2022-11-13T07:07:19.177Z,99.86
2022-11-13T07:17:19.322Z,99.34
2022-11-13T07:27:19.351Z,99.04
2022-11-13T07:37:19.591Z,99.14
2022-11-13T07:47:19.818Z,99.60
2022-11-13T07:57:20.059Z,98.97
2022-11-13T08:07:20.367Z,98.93
2022-11-13T08:17:21.460Z,99.60
2022-11-13T08:27:20.761Z,99.55
2022-11-13T08:37:20.823Z,98.83
2022-11-13T08:47:23.425Z,98.77
2022-11-13T08:57:21.946Z,98.46
2022-11-13T09:07:26.002Z,98.00
2022-11-13T09:17:22.443Z,97.38
2022-11-13T09:27:21.331Z,97.28
2022-11-13T09:37:21.367Z,97.54
2022-11-13T09:47:22.634Z,98.01
2022-11-13T09:57:26.121Z,97.08
2022-11-13T10:07:22.073Z,96.98
2022-11-13T10:17:22.152Z,96.51
2022-11-13T10:27:22.205Z,95.99
2022-11-13T10:37:22.515Z,96.36
2022-11-13T10:47:48.904Z,96.83
2022-11-13T10:57:23.932Z,95.90
2022-11-13T11:07:24.071Z,95.80
2022-11-13T11:17:23.144Z,94.46
2022-11-13T11:27:26.506Z,94.25
2022-11-13T11:37:23.561Z,94.62
2022-11-13T11:47:23.811Z,94.00
2022-11-13T11:57:24.050Z,92.14
2022-11-13T12:07:24.398Z,93.63
2022-11-13T12:17:24.436Z,93.38
2022-11-13T12:27:24.759Z,93.18
2022-11-13T12:37:24.792Z,93.18
2022-11-13T12:47:25.133Z,92.93
2022-11-13T12:57:30.056Z,92.35
2022-11-13T13:07:26.577Z,93.28
2022-11-13T13:17:25.692Z,92.46
2022-11-13T13:27:25.719Z,91.32
2022-11-13T13:37:26.052Z,91.46
2022-11-13T13:47:26.089Z,92.61
2022-11-13T13:57:26.544Z,92.72
2022-11-13T14:07:26.643Z,92.35
2022-11-13T14:17:26.822Z,92.46
2022-11-13T14:27:26.884Z,92.10
2022-11-13T14:37:29.222Z,92.55
2022-11-13T14:47:27.239Z,92.55
2022-11-13T14:57:27.552Z,92.76
2022-11-13T15:07:27.810Z,92.08
2022-11-13T15:17:30.094Z,92.70
2022-11-13T15:27:28.161Z,92.50
2022-11-13T15:37:29.378Z,92.91
2022-11-13T15:47:28.291Z,93.47
2022-11-13T15:57:28.643Z,93.22
2022-11-13T16:07:28.726Z,92.80
2022-11-13T16:17:29.144Z,93.53
2022-11-13T16:27:29.074Z,92.23
2022-11-13T16:37:30.568Z,92.23
2022-11-13T16:47:29.745Z,91.50
2022-11-13T16:57:29.881Z,92.44
2022-11-13T17:07:29.851Z,92.33
2022-11-13T17:17:30.230Z,92.33
2022-11-13T17:27:33.577Z,91.71
2022-11-13T17:37:30.466Z,91.92
2022-11-13T17:47:30.800Z,92.33
2022-11-13T17:57:30.893Z,92.33
2022-11-13T18:07:30.873Z,92.74
2022-11-13T18:17:31.142Z,93.51
2022-11-13T18:27:31.111Z,94.13
2022-11-13T18:37:31.367Z,93.82
2022-11-13T18:47:31.637Z,93.51
2022-11-13T18:57:31.808Z,93.41
2022-11-13T19:07:31.998Z,93.47
2022-11-13T19:17:32.165Z,93.41
2022-11-13T19:27:32.365Z,92.99
2022-11-13T19:37:32.554Z,93.76
2022-11-13T19:47:32.518Z,93.76
2022-11-13T19:57:32.778Z,94.18
2022-11-13T20:07:32.987Z,94.07
2022-11-13T20:17:33.131Z,94.32
2022-11-13T20:27:36.954Z,94.57
2022-11-13T20:37:34.013Z,94.43
2022-11-13T20:47:33.499Z,94.53
2022-11-13T20:57:38.187Z,94.57
2022-11-13T21:07:34.768Z,94.68
2022-11-13T21:17:34.516Z,95.09
2022-11-13T21:27:34.315Z,94.47
2022-11-13T21:37:34.541Z,94.32
2022-11-13T21:47:36.987Z,95.61
2022-11-13T21:57:34.904Z,95.87
2022-11-13T22:07:34.921Z,95.50
2022-11-13T22:17:35.271Z,95.50
2022-11-13T22:27:35.289Z,96.37
2022-11-13T22:37:35.647Z,96.69
2022-11-13T22:47:38.065Z,96.64
2022-11-13T22:57:39.103Z,96.06
2022-11-13T23:07:35.947Z,96.12
2022-11-13T23:17:36.389Z,96.02
2022-11-13T23:27:36.459Z,96.02
2022-11-13T23:37:38.823Z,96.48
2022-11-13T23:47:36.877Z,96.69
2022-11-13T23:57:38.248Z,96.79
